createdAt,value
2023-03-12T00:02:12.834Z,7.28
2023-03-12T00:04:39.731Z,5.13
2023-03-12T00:07:08.333Z,5.07
2023-03-12T00:09:37.573Z,5.65
2023-03-12T00:12:04.712Z,5.63
2023-03-12T00:14:32.585Z,5.60
2023-03-12T00:16:59.547Z,6.20
2023-03-12T00:19:26.727Z,5.28
2023-03-12T00:21:53.588Z,5.47
2023-03-12T00:24:20.540Z,5.75
2023-03-12T00:26:47.378Z,5.43
2023-03-12T00:29:14.293Z,5.88
2023-03-12T00:31:41.249Z,6.40
2023-03-12T00:34:08.164Z,6.05
2023-03-12T00:36:38.097Z,6.45
2023-03-12T00:39:05.251Z,6.05
2023-03-12T00:41:32.096Z,6.35
2023-03-12T00:43:59.034Z,5.93
2023-03-12T00:46:26.009Z,6.28
2023-03-12T00:48:52.982Z,6.32
2023-03-12T00:51:20.388Z,6.47
2023-03-12T00:53:47.760Z,7.05
2023-03-12T00:56:14.749Z,8.05
2023-03-12T00:58:42.791Z,7.32
2023-03-12T01:01:09.851Z,8.20
2023-03-12T01:03:36.961Z,7.22
2023-03-12T01:06:04.633Z,7.45
2023-03-12T01:08:31.667Z,6.97
2023-03-12T01:10:58.654Z,6.50
2023-03-12T01:13:25.756Z,6.68
2023-03-12T01:15:52.613Z,7.35
2023-03-12T01:18:19.553Z,7.43
2023-03-12T01:20:47.158Z,7.30
2023-03-12T01:23:14.512Z,7.10
2023-03-12T01:25:41.668Z,6.45
2023-03-12T01:28:08.793Z,5.43
2023-03-12T01:30:35.666Z,5.00
2023-03-12T01:33:02.469Z,5.63
2023-03-12T01:35:29.313Z,5.05
2023-03-12T01:37:56.409Z,5.35
2023-03-12T01:40:29.132Z,5.18
2023-03-12T01:42:58.311Z,5.00
2023-03-12T01:45:53.430Z,5.18
2023-03-12T01:48:20.562Z,5.22
2023-03-12T01:50:47.477Z,5.47
2023-03-12T01:53:14.489Z,5.18
2023-03-12T01:55:41.703Z,5.85
2023-03-12T01:58:08.810Z,5.80
2023-03-12T02:00:35.685Z,5.78
2023-03-12T02:03:07.014Z,5.65
2023-03-12T02:05:53.225Z,5.95
2023-03-12T02:08:20.192Z,6.57
2023-03-12T02:10:47.571Z,6.60
2023-03-12T02:13:14.446Z,6.15
2023-03-12T02:15:41.690Z,5.95
2023-03-12T02:18:11.754Z,6.40
2023-03-12T02:21:02.582Z,6.43
2023-03-12T02:23:35.261Z,6.20
2023-03-12T02:26:04.589Z,6.35
2023-03-12T02:28:34.495Z,6.50
2023-03-12T02:31:04.228Z,5.97
2023-03-12T02:33:31.050Z,6.88
2023-03-12T02:35:58.037Z,6.60
2023-03-12T02:38:44.458Z,6.40
2023-03-12T02:41:19.571Z,6.25
2023-03-12T02:43:50.251Z,6.47
2023-03-12T02:46:17.509Z,6.93
2023-03-12T02:48:44.387Z,6.60
2023-03-12T02:51:11.358Z,6.25
2023-03-12T02:53:38.387Z,6.45
2023-03-12T02:56:05.644Z,6.10
2023-03-12T02:58:32.666Z,5.53
2023-03-12T03:01:00.649Z,6.90
2023-03-12T03:03:27.552Z,6.22
2023-03-12T03:05:54.700Z,6.60
2023-03-12T03:08:21.553Z,5.85
2023-03-12T03:10:51.424Z,6.20
2023-03-12T03:13:18.226Z,6.30
2023-03-12T03:15:45.042Z,5.90
2023-03-12T03:18:11.933Z,5.85
2023-03-12T03:20:38.867Z,5.68
2023-03-12T03:23:05.654Z,6.35
2023-03-12T03:25:33.511Z,6.15
2023-03-12T03:28:00.264Z,6.78
2023-03-12T03:30:27.030Z,6.40
2023-03-12T03:32:53.837Z,6.65
2023-03-12T03:35:22.206Z,6.40
2023-03-12T03:37:49.040Z,6.22
2023-03-12T03:40:15.992Z,7.03
2023-03-12T03:42:42.788Z,6.57
2023-03-12T03:45:10.032Z,6.18
2023-03-12T03:47:37.324Z,6.60
2023-03-12T03:50:05.981Z,6.35
2023-03-12T03:52:33.111Z,6.78
2023-03-12T03:54:59.907Z,6.13
2023-03-12T03:57:27.778Z,5.85
2023-03-12T03:59:54.710Z,6.68
2023-03-12T04:02:21.845Z,6.80
2023-03-12T04:04:48.966Z,6.70
2023-03-12T04:07:16.375Z,7.10
2023-03-12T04:09:43.986Z,7.03
2023-03-12T04:12:11.149Z,6.65
2023-03-12T04:14:42.957Z,7.28
2023-03-12T04:17:10.114Z,6.85
2023-03-12T04:19:37.167Z,6.45
2023-03-12T04:22:04.342Z,6.78
2023-03-12T04:24:31.233Z,6.47
2023-03-12T04:26:59.209Z,6.80
2023-03-12T04:29:26.498Z,7.32
2023-03-12T04:31:53.423Z,7.00
2023-03-12T04:34:20.905Z,6.85
2023-03-12T04:36:48.145Z,6.63
2023-03-12T04:39:19.182Z,7.10
2023-03-12T04:41:46.305Z,6.30
2023-03-12T04:44:14.168Z,6.15
2023-03-12T04:46:41.530Z,6.95
2023-03-12T04:49:09.088Z,5.97
2023-03-12T04:51:35.883Z,6.15
2023-03-12T04:54:02.902Z,5.80
2023-03-12T04:56:29.673Z,6.25
2023-03-12T04:58:56.677Z,5.85
2023-03-12T05:01:41.641Z,6.15
2023-03-12T05:04:08.484Z,6.10
2023-03-12T05:06:35.574Z,6.47
2023-03-12T05:09:02.462Z,5.95
2023-03-12T05:11:29.397Z,7.85
2023-03-12T05:13:56.206Z,6.40
2023-03-12T05:16:23.047Z,6.45
2023-03-12T05:18:49.929Z,6.57
2023-03-12T05:21:20.349Z,6.40
2023-03-12T05:23:47.706Z,6.10
2023-03-12T05:26:20.600Z,6.82
2023-03-12T05:28:47.822Z,6.10
2023-03-12T05:31:15.877Z,6.65
2023-03-12T05:33:43.190Z,6.70
2023-03-12T05:36:11.033Z,5.88
2023-03-12T05:38:38.456Z,5.85
2023-03-12T05:41:05.701Z,6.32
2023-03-12T05:43:33.153Z,6.40
2023-03-12T05:46:02.407Z,5.43
2023-03-12T05:48:29.894Z,5.68
2023-03-12T05:50:57.375Z,4.95
2023-03-12T05:53:24.546Z,6.40
2023-03-12T05:55:51.483Z,6.15
2023-03-12T05:58:18.446Z,5.72
2023-03-12T06:00:45.696Z,6.68
2023-03-12T06:03:13.246Z,5.80
2023-03-12T06:05:40.255Z,5.88
2023-03-12T06:08:07.729Z,6.32
2023-03-12T06:10:34.814Z,5.53
2023-03-12T06:13:01.653Z,6.22
2023-03-12T06:15:28.395Z,7.07
2023-03-12T06:17:55.220Z,6.30
2023-03-12T06:20:22.754Z,5.90
2023-03-12T06:22:49.868Z,5.68
2023-03-12T06:25:16.773Z,5.65
2023-03-12T06:27:43.642Z,6.03
2023-03-12T06:30:10.991Z,5.65
2023-03-12T06:32:37.771Z,5.35
2023-03-12T06:35:05.954Z,5.28
2023-03-12T06:37:32.957Z,5.65
2023-03-12T06:39:59.969Z,5.38
2023-03-12T06:42:26.960Z,4.97
2023-03-12T06:44:54.047Z,5.35
2023-03-12T06:47:20.910Z,5.30
2023-03-12T06:49:47.713Z,4.80
2023-03-12T06:52:14.513Z,5.03
2023-03-12T06:54:41.527Z,4.93
2023-03-12T06:57:08.725Z,5.03
2023-03-12T06:59:39.259Z,4.50
2023-03-12T07:02:06.509Z,5.63
2023-03-12T07:04:33.329Z,4.25
2023-03-12T07:07:00.337Z,4.35
2023-03-12T07:09:27.359Z,4.55
2023-03-12T07:11:54.249Z,4.43
2023-03-12T07:14:21.431Z,4.55
2023-03-12T07:16:48.605Z,6.50
2023-03-12T07:19:15.724Z,8.43
2023-03-12T07:21:42.630Z,11.57
2023-03-12T07:24:09.972Z,8.02
2023-03-12T07:26:36.881Z,9.82
2023-03-12T07:29:05.209Z,8.27
2023-03-12T07:31:32.224Z,7.38
2023-03-12T07:33:59.227Z,9.65
2023-03-12T07:36:26.419Z,5.15
2023-03-12T07:38:53.308Z,8.00
2023-03-12T07:41:20.202Z,6.45
2023-03-12T07:43:47.457Z,5.05
2023-03-12T07:46:14.475Z,5.32
2023-03-12T07:48:44.133Z,4.57
2023-03-12T07:51:11.314Z,4.88
2023-03-12T07:53:38.151Z,4.28
2023-03-12T07:56:05.433Z,4.45
2023-03-12T07:58:32.859Z,5.13
2023-03-12T08:00:59.837Z,3.80
2023-03-12T08:03:26.822Z,3.67
2023-03-12T08:06:02.524Z,3.60
2023-03-12T08:08:31.100Z,4.25
2023-03-12T08:10:59.669Z,4.00
2023-03-12T08:13:26.552Z,3.70
2023-03-12T08:15:54.465Z,4.55
2023-03-12T08:18:22.152Z,4.57
2023-03-12T08:20:53.512Z,3.65
2023-03-12T08:23:22.102Z,4.15
2023-03-12T08:25:50.445Z,4.45
2023-03-12T08:28:27.491Z,4.78
2023-03-12T08:30:56.262Z,5.05
2023-03-12T08:33:23.290Z,4.63
2023-03-12T08:35:50.761Z,4.00
2023-03-12T08:38:18.057Z,3.85
2023-03-12T08:40:44.933Z,4.25
2023-03-12T08:43:11.937Z,3.90
2023-03-12T08:45:38.975Z,3.92
2023-03-12T08:48:06.732Z,3.38
2023-03-12T08:50:33.850Z,3.70
2023-03-12T08:53:00.805Z,3.67
2023-03-12T08:55:30.791Z,3.67
2023-03-12T08:57:57.730Z,3.33
2023-03-12T09:00:25.231Z,3.70
2023-03-12T09:03:16.341Z,3.13
2023-03-12T09:05:50.366Z,2.75
2023-03-12T09:08:51.554Z,2.45
2023-03-12T09:11:29.079Z,3.33
2023-03-12T09:14:26.586Z,3.63
2023-03-12T09:16:43.246Z,3.38
2023-03-12T09:19:10.815Z,4.82
2023-03-12T09:21:38.041Z,3.75
2023-03-12T09:24:05.589Z,3.13
2023-03-12T09:26:43.867Z,3.45
2023-03-12T09:29:29.418Z,3.22
2023-03-12T09:32:30.704Z,3.88
2023-03-12T09:38:04.167Z,3.78
2023-03-12T09:40:37.316Z,3.35
2023-03-12T09:43:25.535Z,2.97
2023-03-12T09:45:53.812Z,3.55
2023-03-12T09:48:36.855Z,3.70
2023-03-12T09:51:20.835Z,3.17
2023-03-12T09:53:59.212Z,3.30
2023-03-12T09:56:27.490Z,2.83
2023-03-12T09:58:59.462Z,2.90
2023-03-12T10:01:37.970Z,3.65
2023-03-12T10:04:23.408Z,4.10
2023-03-12T10:06:53.089Z,3.40
2023-03-12T10:09:43.674Z,3.75
2023-03-12T10:12:49.138Z,2.90
2023-03-12T10:15:45.606Z,3.40
2023-03-12T10:18:32.357Z,3.53
2023-03-12T10:21:20.315Z,3.15
2023-03-12T10:24:06.560Z,3.70
2023-03-12T10:26:42.835Z,3.30
2023-03-12T10:29:39.642Z,3.60
2023-03-12T10:32:12.675Z,3.70
2023-03-12T10:35:03.076Z,3.97
2023-03-12T10:37:40.048Z,4.22
2023-03-12T10:40:08.963Z,4.28
2023-03-12T10:49:32.983Z,4.80
2023-03-12T10:52:05.806Z,4.85
2023-03-12T10:57:42.642Z,5.32
2023-03-12T11:00:48.075Z,5.22
2023-03-12T11:03:57.548Z,4.28
2023-03-12T11:10:14.375Z,6.20
2023-03-12T11:12:56.970Z,6.20
2023-03-12T11:15:32.022Z,7.03
2023-03-12T11:18:21.491Z,6.05
2023-03-12T11:20:52.849Z,7.18
2023-03-12T11:23:29.325Z,7.68
2023-03-12T11:26:03.442Z,6.70
2023-03-12T11:28:42.114Z,7.77
2023-03-12T11:31:23.425Z,7.05
2023-03-12T11:33:58.382Z,7.03
2023-03-12T11:39:41.492Z,7.38
2023-03-12T11:42:27.805Z,8.05
2023-03-12T11:45:06.390Z,7.80
2023-03-12T11:47:55.471Z,8.32
2023-03-12T11:50:49.952Z,8.48
2023-03-12T11:53:29.319Z,7.78
2023-03-12T11:56:23.326Z,10.07
2023-03-12T11:59:14.976Z,9.77
2023-03-12T12:02:05.940Z,9.90
2023-03-12T12:05:16.513Z,9.98
2023-03-12T12:07:59.062Z,11.25
2023-03-12T12:10:53.526Z,11.90
2023-03-12T12:13:51.552Z,12.23
2023-03-12T12:16:46.281Z,10.63
2023-03-12T12:19:26.500Z,11.23
2023-03-12T12:22:21.927Z,12.00
2023-03-12T12:25:18.194Z,11.15
2023-03-12T12:28:09.223Z,10.80
2023-03-12T12:31:13.965Z,10.13
2023-03-12T12:34:04.543Z,10.25
2023-03-12T12:36:35.387Z,10.30
2023-03-12T12:39:16.325Z,9.88
2023-03-12T12:41:51.974Z,9.82
2023-03-12T12:44:26.041Z,10.32
2023-03-12T12:46:59.201Z,9.77
2023-03-12T12:49:50.988Z,8.95
2023-03-12T12:52:22.546Z,9.10
2023-03-12T12:54:58.625Z,9.20
2023-03-12T12:57:34.874Z,9.27
2023-03-12T13:00:30.241Z,13.70
2023-03-12T13:02:58.289Z,10.80
2023-03-12T13:05:45.567Z,9.70
2023-03-12T13:08:32.430Z,9.23
2023-03-12T13:11:17.150Z,10.57
2023-03-12T13:13:51.423Z,11.75
2023-03-12T13:16:30.999Z,11.15
2023-03-12T13:19:17.039Z,9.82
2023-03-12T13:22:35.450Z,10.18
2023-03-12T13:25:14.701Z,9.98
2023-03-12T13:27:44.847Z,10.13
2023-03-12T13:30:41.958Z,9.90
2023-03-12T13:33:16.175Z,9.80
2023-03-12T13:36:02.382Z,8.07
2023-03-12T13:38:40.189Z,10.40
2023-03-12T13:41:08.707Z,10.60
2023-03-12T13:43:39.224Z,10.65
2023-03-12T13:46:21.064Z,10.85
2023-03-12T13:48:49.722Z,11.77
2023-03-12T13:51:25.397Z,12.13
2023-03-12T13:54:01.617Z,11.88
2023-03-12T13:56:31.660Z,11.65
2023-03-12T13:59:14.009Z,11.20
2023-03-12T14:01:46.052Z,12.65
2023-03-12T14:04:20.912Z,12.93
2023-03-12T14:07:17.694Z,11.90
2023-03-12T14:10:02.192Z,12.82
2023-03-12T14:12:53.562Z,12.57
2023-03-12T14:15:54.461Z,12.73
2023-03-12T14:18:26.675Z,11.90
2023-03-12T14:21:00.530Z,12.13
2023-03-12T14:23:40.598Z,12.63
2023-03-12T14:26:16.696Z,12.70
2023-03-12T14:29:01.185Z,13.10
2023-03-12T14:31:30.314Z,9.47
2023-03-12T14:34:16.385Z,12.57
2023-03-12T14:36:47.436Z,13.25
2023-03-12T14:39:39.773Z,12.85
2023-03-12T14:42:09.355Z,14.38
2023-03-12T14:44:39.947Z,13.25
2023-03-12T14:47:18.015Z,14.65
2023-03-12T14:49:47.298Z,14.82
2023-03-12T14:52:26.069Z,16.05
2023-03-12T14:54:58.767Z,18.02
2023-03-12T14:57:26.750Z,20.00
2023-03-12T14:59:59.809Z,21.15
2023-03-12T15:02:29.038Z,21.40
2023-03-12T15:05:00.526Z,21.90
2023-03-12T15:07:39.922Z,22.17
2023-03-12T15:10:17.317Z,23.50
2023-03-12T15:12:46.868Z,23.70
2023-03-12T15:15:42.900Z,26.65
2023-03-12T15:18:31.056Z,25.13
2023-03-12T15:21:01.717Z,24.70
2023-03-12T15:23:36.723Z,26.70
2023-03-12T15:26:11.916Z,26.98
2023-03-12T15:28:40.417Z,28.73
2023-03-12T15:31:12.080Z,27.75
2023-03-12T15:33:40.792Z,28.65
2023-03-12T15:36:18.462Z,28.67
2023-03-12T15:39:10.489Z,28.05
2023-03-12T15:41:49.565Z,29.63
2023-03-12T15:44:23.297Z,31.67
2023-03-12T15:46:57.222Z,29.42
2023-03-12T15:49:29.997Z,30.92
2023-03-12T15:52:03.450Z,30.17
2023-03-12T15:54:35.445Z,29.55
2023-03-12T15:57:20.188Z,27.65
2023-03-12T16:00:14.811Z,25.60
2023-03-12T16:02:52.799Z,25.02
2023-03-12T16:05:23.157Z,23.90
2023-03-12T16:07:50.372Z,24.17
2023-03-12T16:10:20.926Z,24.92
2023-03-12T16:12:50.497Z,25.63
2023-03-12T16:15:22.987Z,25.05
2023-03-12T16:17:50.839Z,26.77
2023-03-12T16:20:19.048Z,26.75
2023-03-12T16:22:46.332Z,28.45
2023-03-12T16:25:13.783Z,27.95
2023-03-12T16:28:00.804Z,29.05
2023-03-12T16:30:31.423Z,28.73
2023-03-12T16:33:00.564Z,30.13
2023-03-12T16:35:29.178Z,30.58
2023-03-12T16:37:56.891Z,29.70
2023-03-12T16:40:33.217Z,30.55
2023-03-12T16:43:04.016Z,28.73
2023-03-12T16:45:34.113Z,30.08
2023-03-12T16:48:04.343Z,29.67
2023-03-12T16:50:31.903Z,30.20
2023-03-12T16:52:59.784Z,30.38
2023-03-12T16:55:30.453Z,33.53
2023-03-12T16:58:02.670Z,31.42
2023-03-12T17:00:33.189Z,30.02
2023-03-12T17:03:01.016Z,28.63
2023-03-12T17:05:30.194Z,29.23
2023-03-12T17:07:59.253Z,29.52
2023-03-12T17:10:27.016Z,28.85
2023-03-12T17:12:55.729Z,28.58
2023-03-12T17:15:26.594Z,30.77
2023-03-12T17:17:55.923Z,29.73
2023-03-12T17:20:25.757Z,30.95
2023-03-12T17:22:53.690Z,30.38
2023-03-12T17:25:28.558Z,28.48
2023-03-12T17:27:57.543Z,27.58
2023-03-12T17:30:25.861Z,27.02
2023-03-12T17:32:54.713Z,25.35
2023-03-12T17:35:22.504Z,23.33
2023-03-12T17:37:51.225Z,23.60
2023-03-12T17:40:19.088Z,23.60
2023-03-12T17:42:46.573Z,21.58
2023-03-12T17:45:14.721Z,21.48
2023-03-12T17:47:43.037Z,21.88
2023-03-12T17:50:12.135Z,20.13
2023-03-12T17:52:39.616Z,17.60
2023-03-12T17:55:11.643Z,16.90
2023-03-12T17:57:39.437Z,17.85
2023-03-12T18:00:13.184Z,17.63
2023-03-12T18:02:41.798Z,18.40
2023-03-12T18:05:11.016Z,18.60
2023-03-12T18:07:40.303Z,18.35
2023-03-12T18:10:11.319Z,16.88
2023-03-12T18:12:40.793Z,17.35
2023-03-12T18:15:11.379Z,15.38
2023-03-12T18:17:39.445Z,17.25
2023-03-12T18:20:10.107Z,17.20
2023-03-12T18:22:39.712Z,17.27
2023-03-12T18:25:08.037Z,16.67
2023-03-12T18:27:35.216Z,14.90
2023-03-12T18:30:02.583Z,16.60
2023-03-12T18:32:30.198Z,15.50
2023-03-12T18:34:57.846Z,17.88
2023-03-12T18:37:25.814Z,15.40
2023-03-12T18:39:53.032Z,16.40
2023-03-12T18:42:20.614Z,17.58
2023-03-12T18:44:47.847Z,16.52
2023-03-12T18:47:14.905Z,17.02
2023-03-12T18:49:42.390Z,14.32
2023-03-12T18:52:10.134Z,14.63
2023-03-12T18:54:38.660Z,14.32
2023-03-12T18:57:08.053Z,14.02
2023-03-12T18:59:36.179Z,14.70
2023-03-12T19:02:05.419Z,13.68
2023-03-12T19:04:33.218Z,14.27
2023-03-12T19:07:01.147Z,14.77
2023-03-12T19:09:28.703Z,13.68
2023-03-12T19:11:56.301Z,12.55
2023-03-12T19:14:23.806Z,13.57
2023-03-12T19:16:51.806Z,14.32
2023-03-12T19:19:20.604Z,13.77
2023-03-12T19:21:48.842Z,14.02
2023-03-12T19:24:16.868Z,14.15
2023-03-12T19:26:44.737Z,12.85
2023-03-12T19:29:12.336Z,15.48
2023-03-12T19:31:44.659Z,14.73
2023-03-12T19:34:12.397Z,13.02
2023-03-12T19:36:39.951Z,13.30
2023-03-12T19:39:15.208Z,13.88
2023-03-12T19:41:48.228Z,12.63
2023-03-12T19:44:16.090Z,13.02
2023-03-12T19:46:43.606Z,14.52
2023-03-12T19:49:11.199Z,13.40
2023-03-12T19:51:40.621Z,12.35
2023-03-12T19:54:08.456Z,11.90
2023-03-12T19:56:36.089Z,11.52
2023-03-12T19:59:04.286Z,11.60
2023-03-12T20:01:31.699Z,12.50
2023-03-12T20:03:59.301Z,11.45
2023-03-12T20:06:26.812Z,11.68
2023-03-12T20:08:54.270Z,11.32
2023-03-12T20:11:21.867Z,12.18
2023-03-12T20:13:49.164Z,11.88
2023-03-12T20:16:17.256Z,11.48
2023-03-12T20:18:44.833Z,11.98
2023-03-12T20:21:11.998Z,13.05
2023-03-12T20:23:39.545Z,12.60
2023-03-12T20:26:07.020Z,12.73
2023-03-12T20:28:34.450Z,12.15
2023-03-12T20:31:10.066Z,12.77
2023-03-12T20:33:37.767Z,12.45
2023-03-12T20:36:15.502Z,13.55
2023-03-12T20:38:43.392Z,13.48
2023-03-12T20:41:15.987Z,13.35
2023-03-12T20:43:44.656Z,13.68
2023-03-12T20:46:13.176Z,13.40
2023-03-12T20:48:40.421Z,14.32
2023-03-12T20:51:07.751Z,14.68
2023-03-12T20:53:35.130Z,13.95
2023-03-12T20:56:04.321Z,12.27
2023-03-12T20:58:32.832Z,12.95
2023-03-12T21:01:05.214Z,11.75
2023-03-12T21:03:33.791Z,12.55
2023-03-12T21:06:03.033Z,11.93
2023-03-12T21:08:30.775Z,12.25
2023-03-12T21:10:58.307Z,11.38
2023-03-12T21:13:26.919Z,10.57
2023-03-12T21:15:54.269Z,10.10
2023-03-12T21:18:22.493Z,11.02
2023-03-12T21:20:50.488Z,9.23
2023-03-12T21:23:18.527Z,9.45
2023-03-12T21:25:46.332Z,8.88
2023-03-12T21:28:13.906Z,9.50
2023-03-12T21:30:41.577Z,9.70
2023-03-12T21:33:09.009Z,8.85
2023-03-12T21:35:36.337Z,8.98
2023-03-12T21:38:04.034Z,7.72
2023-03-12T21:40:31.335Z,8.82
2023-03-12T21:42:59.110Z,8.23
2023-03-12T21:45:26.569Z,8.63
2023-03-12T21:47:54.478Z,7.45
2023-03-12T21:50:22.243Z,7.85
2023-03-12T21:52:50.040Z,7.65
2023-03-12T21:55:18.702Z,7.75
2023-03-12T21:57:46.326Z,7.15
2023-03-12T22:00:14.472Z,7.03
2023-03-12T22:02:42.727Z,5.97
2023-03-12T22:05:11.080Z,7.03
2023-03-12T22:07:39.369Z,6.85
2023-03-12T22:10:08.164Z,6.68
2023-03-12T22:12:35.262Z,8.68
2023-03-12T22:15:03.002Z,6.80
2023-03-12T22:17:30.153Z,6.75
2023-03-12T22:19:57.389Z,6.68
2023-03-12T22:22:24.589Z,6.65
2023-03-12T22:24:52.404Z,7.47
2023-03-12T22:27:19.733Z,7.65
2023-03-12T22:29:47.434Z,6.55
2023-03-12T22:32:14.989Z,6.75
2023-03-12T22:34:42.487Z,6.45
2023-03-12T22:37:09.574Z,6.72
2023-03-12T22:39:39.449Z,6.35
2023-03-12T22:42:07.018Z,6.63
2023-03-12T22:44:34.273Z,7.03
2023-03-12T22:47:01.698Z,6.00
2023-03-12T22:49:29.083Z,6.50
2023-03-12T22:51:56.421Z,6.38
2023-03-12T22:54:23.817Z,6.00
2023-03-12T22:56:50.930Z,5.50
2023-03-12T22:59:18.216Z,5.88
2023-03-12T23:01:45.536Z,6.07
2023-03-12T23:04:13.133Z,6.68
2023-03-12T23:06:40.614Z,6.28
2023-03-12T23:09:08.111Z,6.93
2023-03-12T23:11:36.128Z,6.90
2023-03-12T23:14:05.929Z,7.35
2023-03-12T23:16:33.299Z,7.63
2023-03-12T23:19:00.715Z,7.00
2023-03-12T23:21:27.916Z,5.95
2023-03-12T23:23:55.531Z,6.07
2023-03-12T23:26:28.315Z,6.03
2023-03-12T23:28:57.581Z,6.47
2023-03-12T23:31:28.811Z,5.50
2023-03-12T23:33:57.008Z,5.30
2023-03-12T23:36:25.483Z,6.63
2023-03-12T23:38:53.600Z,5.95
2023-03-12T23:41:23.683Z,6.63
2023-03-12T23:43:52.260Z,8.18
2023-03-12T23:46:20.168Z,5.68
2023-03-12T23:48:48.630Z,6.97
2023-03-12T23:51:22.260Z,5.22
2023-03-12T23:53:51.857Z,7.80
2023-03-12T23:56:21.550Z,6.88
2023-03-12T23:58:53.625Z,5.75
